sensor_id;sensor_type;location;lat;lon;timestamp;pressure;altitude;pressure_sealevel;temperature;humidity
55460;BME280;41326;45.302;-122.946;2023-02-28T00:00:43;98987.59;;;17.28;48.75
55460;BME280;41326;45.302;-122.946;2023-02-28T00:03:13;98995.53;;;17.28;48.71
55460;BME280;41326;45.302;-122.946;2023-02-28T00:05:43;99000.03;;;17.41;48.38
55460;BME280;41326;45.302;-122.946;2023-02-28T00:08:14;99001.00;;;17.55;48.05
55460;BME280;41326;45.302;-122.946;2023-02-28T00:10:44;98991.75;;;17.68;47.73
55460;BME280;41326;45.302;-122.946;2023-02-28T00:13:13;98984.90;;;17.63;47.85
55460;BME280;41326;45.302;-122.946;2023-02-28T00:15:44;98980.44;;;17.60;47.95
55460;BME280;41326;45.302;-122.946;2023-02-28T00:18:14;98976.10;;;17.58;48.09
55460;BME280;41326;45.302;-122.946;2023-02-28T00:20:44;98980.42;;;17.57;48.24
55460;BME280;41326;45.302;-122.946;2023-02-28T00:23:14;98977.83;;;17.48;48.49
55460;BME280;41326;45.302;-122.946;2023-02-28T00:25:44;98976.31;;;17.42;48.67
55460;BME280;41326;45.302;-122.946;2023-02-28T00:28:15;98975.28;;;17.37;48.92
55460;BME280;41326;45.302;-122.946;2023-02-28T00:30:45;98970.99;;;17.32;49.08
55460;BME280;41326;45.302;-122.946;2023-02-28T00:33:16;98968.66;;;17.30;49.14
55460;BME280;41326;45.302;-122.946;2023-02-28T00:35:47;98965.35;;;17.29;49.13
55460;BME280;41326;45.302;-122.946;2023-02-28T00:38:17;98965.33;;;17.32;48.80
55460;BME280;41326;45.302;-122.946;2023-02-28T00:40:49;98965.94;;;17.47;48.49
55460;BME280;41326;45.302;-122.946;2023-02-28T00:43:17;98967.05;;;17.64;48.07
55460;BME280;41326;45.302;-122.946;2023-02-28T00:45:49;98964.00;;;17.89;47.55
55460;BME280;41326;45.302;-122.946;2023-02-28T00:48:19;98967.18;;;18.11;46.95
55460;BME280;41326;45.302;-122.946;2023-02-28T00:50:48;98965.49;;;18.15;46.93
55460;BME280;41326;45.302;-122.946;2023-02-28T00:53:19;98962.79;;;18.04;47.26
55460;BME280;41326;45.302;-122.946;2023-02-28T00:55:49;98961.87;;;18.02;47.17
55460;BME280;41326;45.302;-122.946;2023-02-28T00:58:20;98958.84;;;18.16;46.88
55460;BME280;41326;45.302;-122.946;2023-02-28T01:00:51;98956.71;;;18.31;46.56
55460;BME280;41326;45.302;-122.946;2023-02-28T01:03:22;98953.54;;;18.45;46.22
55460;BME280;41326;45.302;-122.946;2023-02-28T01:05:52;98958.77;;;18.63;45.92
55460;BME280;41326;45.302;-122.946;2023-02-28T01:08:22;98958.92;;;18.78;45.63
55460;BME280;41326;45.302;-122.946;2023-02-28T01:10:52;98949.34;;;18.86;45.40
55460;BME280;41326;45.302;-122.946;2023-02-28T01:13:22;98948.05;;;18.78;45.64
55460;BME280;41326;45.302;-122.946;2023-02-28T01:15:55;98946.35;;;18.65;45.91
55460;BME280;41326;45.302;-122.946;2023-02-28T01:18:23;98939.77;;;18.73;45.79
55460;BME280;41326;45.302;-122.946;2023-02-28T01:20:53;98939.92;;;18.85;45.57
55460;BME280;41326;45.302;-122.946;2023-02-28T01:23:24;98941.03;;;18.88;45.60
55460;BME280;41326;45.302;-122.946;2023-02-28T01:25:53;98942.51;;;18.79;45.91
55460;BME280;41326;45.302;-122.946;2023-02-28T01:28:24;98939.76;;;18.67;46.21
55460;BME280;41326;45.302;-122.946;2023-02-28T01:30:54;98943.51;;;18.48;46.85
55460;BME280;41326;45.302;-122.946;2023-02-28T01:33:25;98941.38;;;18.55;46.77
55460;BME280;41326;45.302;-122.946;2023-02-28T01:35:57;98954.40;;;18.75;46.49
55460;BME280;41326;45.302;-122.946;2023-02-28T01:38:25;98961.83;;;18.84;46.27
55460;BME280;41326;45.302;-122.946;2023-02-28T01:40:56;98962.64;;;18.76;46.58
55460;BME280;41326;45.302;-122.946;2023-02-28T01:43:28;98962.33;;;18.72;46.61
55460;BME280;41326;45.302;-122.946;2023-02-28T01:45:57;98953.36;;;18.69;46.56
55460;BME280;41326;45.302;-122.946;2023-02-28T01:48:31;98955.19;;;18.83;46.17
55460;BME280;41326;45.302;-122.946;2023-02-28T01:50:58;98952.80;;;19.00;45.88
55460;BME280;41326;45.302;-122.946;2023-02-28T01:53:31;98949.71;;;18.98;46.09
55460;BME280;41326;45.302;-122.946;2023-02-28T01:55:58;98940.29;;;18.95;46.68
55460;BME280;41326;45.302;-122.946;2023-02-28T01:58:28;98943.50;;;18.90;47.64
55460;BME280;41326;45.302;-122.946;2023-02-28T02:00:57;98943.34;;;19.00;47.63
55460;BME280;41326;45.302;-122.946;2023-02-28T02:03:29;98943.68;;;19.19;47.68
55460;BME280;41326;45.302;-122.946;2023-02-28T02:05:58;98941.68;;;19.22;47.74
55460;BME280;41326;45.302;-122.946;2023-02-28T02:08:30;98947.85;;;19.16;48.28
55460;BME280;41326;45.302;-122.946;2023-02-28T02:11:00;98949.76;;;19.11;48.60
55460;BME280;41326;45.302;-122.946;2023-02-28T02:13:41;98953.96;;;19.13;48.54
55460;BME280;41326;45.302;-122.946;2023-02-28T02:16:09;98954.88;;;19.34;48.06
55460;BME280;41326;45.302;-122.946;2023-02-28T02:18:35;98957.17;;;19.39;47.98
55460;BME280;41326;45.302;-122.946;2023-02-28T02:21:11;98960.60;;;19.33;48.11
55460;BME280;41326;45.302;-122.946;2023-02-28T02:26:06;98961.58;;;19.25;49.08
55460;BME280;41326;45.302;-122.946;2023-02-28T02:36:04;98964.37;;;18.87;52.46
55460;BME280;41326;45.302;-122.946;2023-02-28T02:38:38;98964.45;;;18.83;52.31
55460;BME280;41326;45.302;-122.946;2023-02-28T02:41:08;98967.72;;;18.77;52.04
55460;BME280;41326;45.302;-122.946;2023-02-28T02:43:36;98969.75;;;18.72;51.98
55460;BME280;41326;45.302;-122.946;2023-02-28T02:46:08;98966.68;;;18.64;52.19
55460;BME280;41326;45.302;-122.946;2023-02-28T02:48:36;98970.66;;;18.60;51.81
55460;BME280;41326;45.302;-122.946;2023-02-28T02:51:06;98968.43;;;18.57;51.61
55460;BME280;41326;45.302;-122.946;2023-02-28T02:53:41;98970.24;;;18.49;51.73
55460;BME280;41326;45.302;-122.946;2023-02-28T02:56:06;98966.16;;;18.40;51.81
55460;BME280;41326;45.302;-122.946;2023-02-28T02:58:40;98964.03;;;18.40;51.61
55460;BME280;41326;45.302;-122.946;2023-02-28T03:01:07;98968.84;;;18.43;51.31
55460;BME280;41326;45.302;-122.946;2023-02-28T03:03:37;98968.28;;;18.38;51.38
55460;BME280;41326;45.302;-122.946;2023-02-28T03:06:08;98973.76;;;18.32;51.52
55460;BME280;41326;45.302;-122.946;2023-02-28T03:08:40;98975.23;;;18.32;51.34
55460;BME280;41326;45.302;-122.946;2023-02-28T03:11:12;98971.36;;;18.25;51.41
55460;BME280;41326;45.302;-122.946;2023-02-28T03:13:48;98974.56;;;18.38;50.79
55460;BME280;41326;45.302;-122.946;2023-02-28T03:18:43;98980.14;;;18.78;49.24
55460;BME280;41326;45.302;-122.946;2023-02-28T03:21:13;98979.71;;;18.75;49.31
55460;BME280;41326;45.302;-122.946;2023-02-28T03:23:45;98985.10;;;18.68;49.53
55460;BME280;41326;45.302;-122.946;2023-02-28T03:26:16;98987.31;;;18.58;49.83
55460;BME280;41326;45.302;-122.946;2023-02-28T03:28:47;98985.15;;;18.51;50.02
55460;BME280;41326;45.302;-122.946;2023-02-28T03:31:15;98985.94;;;18.45;50.16
55460;BME280;41326;45.302;-122.946;2023-02-28T03:33:43;98993.00;;;18.43;50.15
55460;BME280;41326;45.302;-122.946;2023-02-28T03:36:13;98991.95;;;18.39;50.26
55460;BME280;41326;45.302;-122.946;2023-02-28T03:38:44;98995.32;;;18.37;50.19
55460;BME280;41326;45.302;-122.946;2023-02-28T03:41:16;99002.44;;;18.36;50.09
55460;BME280;41326;45.302;-122.946;2023-02-28T03:43:44;99003.65;;;18.31;50.11
55460;BME280;41326;45.302;-122.946;2023-02-28T03:46:14;99002.34;;;18.48;49.43
55460;BME280;41326;45.302;-122.946;2023-02-28T03:48:45;99000.46;;;18.63;49.06
55460;BME280;41326;45.302;-122.946;2023-02-28T03:51:15;98998.66;;;18.76;48.65
55460;BME280;41326;45.302;-122.946;2023-02-28T03:53:45;98999.89;;;18.66;48.98
55460;BME280;41326;45.302;-122.946;2023-02-28T03:56:16;99002.53;;;18.63;49.02
55460;BME280;41326;45.302;-122.946;2023-02-28T03:58:47;99001.82;;;18.55;49.17
55460;BME280;41326;45.302;-122.946;2023-02-28T04:01:16;99002.41;;;18.48;49.30
55460;BME280;41326;45.302;-122.946;2023-02-28T04:03:44;99001.52;;;18.45;49.38
55460;BME280;41326;45.302;-122.946;2023-02-28T04:06:19;99000.94;;;18.39;49.64
55460;BME280;41326;45.302;-122.946;2023-02-28T04:08:43;99002.88;;;18.37;49.56
55460;BME280;41326;45.302;-122.946;2023-02-28T04:11:21;99001.70;;;18.33;49.76
55460;BME280;41326;45.302;-122.946;2023-02-28T04:13:43;99002.62;;;18.26;49.92
55460;BME280;41326;45.302;-122.946;2023-02-28T04:16:14;99005.80;;;18.37;49.19
55460;BME280;41326;45.302;-122.946;2023-02-28T04:18:44;99007.88;;;18.54;48.90
55460;BME280;41326;45.302;-122.946;2023-02-28T04:21:15;99008.57;;;18.75;48.27
55460;BME280;41326;45.302;-122.946;2023-02-28T04:23:45;99010.60;;;18.76;48.38
55460;BME280;41326;45.302;-122.946;2023-02-28T04:26:15;99010.85;;;18.62;48.82
55460;BME280;41326;45.302;-122.946;2023-02-28T04:28:46;99013.69;;;18.54;49.02
55460;BME280;41326;45.302;-122.946;2023-02-28T04:31:16;99011.88;;;18.45;49.23
55460;BME280;41326;45.302;-122.946;2023-02-28T04:33:47;99013.32;;;18.37;49.46
55460;BME280;41326;45.302;-122.946;2023-02-28T04:36:17;99016.47;;;18.36;49.48
55460;BME280;41326;45.302;-122.946;2023-02-28T04:38:49;99024.73;;;18.33;49.40
55460;BME280;41326;45.302;-122.946;2023-02-28T04:41:19;99026.97;;;18.29;49.42
55460;BME280;41326;45.302;-122.946;2023-02-28T04:43:49;99030.19;;;18.35;49.08
55460;BME280;41326;45.302;-122.946;2023-02-28T04:46:19;99034.58;;;18.53;48.54
55460;BME280;41326;45.302;-122.946;2023-02-28T04:48:50;99036.77;;;18.73;47.95
55460;BME280;41326;45.302;-122.946;2023-02-28T04:51:21;99037.81;;;18.73;48.25
55460;BME280;41326;45.302;-122.946;2023-02-28T04:53:51;99041.90;;;18.60;48.69
55460;BME280;41326;45.302;-122.946;2023-02-28T04:56:22;99044.92;;;18.54;48.89
55460;BME280;41326;45.302;-122.946;2023-02-28T04:58:52;99051.21;;;18.50;49.04
55460;BME280;41326;45.302;-122.946;2023-02-28T05:01:25;99056.03;;;18.48;49.04
55460;BME280;41326;45.302;-122.946;2023-02-28T05:03:53;99059.51;;;18.49;49.17
55460;BME280;41326;45.302;-122.946;2023-02-28T05:06:23;99062.29;;;18.47;49.26
55460;BME280;41326;45.302;-122.946;2023-02-28T05:08:53;99066.27;;;18.42;49.35
55460;BME280;41326;45.302;-122.946;2023-02-28T05:11:25;99072.93;;;18.33;49.55
55460;BME280;41326;45.302;-122.946;2023-02-28T05:13:54;99075.83;;;18.26;49.73
55460;BME280;41326;45.302;-122.946;2023-02-28T05:16:24;99080.69;;;18.18;49.91
55460;BME280;41326;45.302;-122.946;2023-02-28T05:18:54;99082.59;;;18.16;49.75
55460;BME280;41326;45.302;-122.946;2023-02-28T05:21:32;99087.27;;;18.16;49.58
55460;BME280;41326;45.302;-122.946;2023-02-28T05:23:55;99091.94;;;18.15;49.50
55460;BME280;41326;45.302;-122.946;2023-02-28T05:26:26;99100.55;;;18.09;49.72
55460;BME280;41326;45.302;-122.946;2023-02-28T05:28:55;99105.46;;;18.02;49.86
55460;BME280;41326;45.302;-122.946;2023-02-28T05:31:26;99107.95;;;17.93;50.11
55460;BME280;41326;45.302;-122.946;2023-02-28T05:33:56;99106.57;;;17.90;50.19
55460;BME280;41326;45.302;-122.946;2023-02-28T05:36:27;99111.37;;;17.90;50.17
55460;BME280;41326;45.302;-122.946;2023-02-28T05:38:58;99120.85;;;17.90;50.05
55460;BME280;41326;45.302;-122.946;2023-02-28T05:41:27;99122.62;;;17.88;50.05
55460;BME280;41326;45.302;-122.946;2023-02-28T05:43:57;99127.40;;;17.84;50.19
55460;BME280;41326;45.302;-122.946;2023-02-28T05:46:27;99133.77;;;17.80;50.30
55460;BME280;41326;45.302;-122.946;2023-02-28T05:48:57;99136.10;;;17.75;50.41
55460;BME280;41326;45.302;-122.946;2023-02-28T05:52:36;99140.83;;;17.69;50.51
55460;BME280;41326;45.302;-122.946;2023-02-28T05:55:07;99145.11;;;17.71;50.39
55460;BME280;41326;45.302;-122.946;2023-02-28T05:57:36;99151.25;;;17.69;50.40
55460;BME280;41326;45.302;-122.946;2023-02-28T06:00:08;99154.24;;;17.70;50.34
55460;BME280;41326;45.302;-122.946;2023-02-28T06:02:38;99152.14;;;17.68;50.29
55460;BME280;41326;45.302;-122.946;2023-02-28T06:05:08;99156.72;;;17.59;50.55
55460;BME280;41326;45.302;-122.946;2023-02-28T06:07:38;99160.45;;;17.56;50.61
55460;BME280;41326;45.302;-122.946;2023-02-28T06:10:11;99168.74;;;17.55;50.63
55460;BME280;41326;45.302;-122.946;2023-02-28T06:12:39;99172.69;;;17.52;50.70
55460;BME280;41326;45.302;-122.946;2023-02-28T06:15:12;99175.49;;;17.50;50.68
55460;BME280;41326;45.302;-122.946;2023-02-28T06:17:40;99174.53;;;17.47;50.67
55460;BME280;41326;45.302;-122.946;2023-02-28T06:20:11;99180.08;;;17.47;50.46
55460;BME280;41326;45.302;-122.946;2023-02-28T06:22:41;99187.83;;;17.49;50.30
55460;BME280;41326;45.302;-122.946;2023-02-28T06:25:11;99184.54;;;17.42;50.63
55460;BME280;41326;45.302;-122.946;2023-02-28T06:27:41;99196.19;;;17.41;50.57
55460;BME280;41326;45.302;-122.946;2023-02-28T06:30:12;99191.82;;;17.39;50.60
55460;BME280;41326;45.302;-122.946;2023-02-28T06:32:41;99189.73;;;17.34;50.72
55460;BME280;41326;45.302;-122.946;2023-02-28T06:35:12;99194.68;;;17.37;50.54
55460;BME280;41326;45.302;-122.946;2023-02-28T06:37:42;99199.17;;;17.32;50.65
55460;BME280;41326;45.302;-122.946;2023-02-28T06:40:14;99196.04;;;17.33;50.47
55460;BME280;41326;45.302;-122.946;2023-02-28T06:42:43;99194.73;;;17.30;50.44
55460;BME280;41326;45.302;-122.946;2023-02-28T06:45:14;99197.12;;;17.26;50.55
55460;BME280;41326;45.302;-122.946;2023-02-28T06:47:44;99201.35;;;17.21;50.68
55460;BME280;41326;45.302;-122.946;2023-02-28T06:50:16;99211.64;;;17.22;50.59
55460;BME280;41326;45.302;-122.946;2023-02-28T06:52:44;99214.98;;;17.17;50.69
55460;BME280;41326;45.302;-122.946;2023-02-28T06:55:15;99230.89;;;17.16;50.70
55460;BME280;41326;45.302;-122.946;2023-02-28T06:57:45;99232.64;;;17.13;50.76
55460;BME280;41326;45.302;-122.946;2023-02-28T07:00:16;99235.73;;;17.12;50.77
55460;BME280;41326;45.302;-122.946;2023-02-28T07:02:46;99238.26;;;17.11;50.77
55460;BME280;41326;45.302;-122.946;2023-02-28T07:05:16;99233.84;;;17.06;51.03
55460;BME280;41326;45.302;-122.946;2023-02-28T07:07:46;99237.81;;;17.03;51.10
55460;BME280;41326;45.302;-122.946;2023-02-28T07:10:17;99242.75;;;17.02;51.13
55460;BME280;41326;45.302;-122.946;2023-02-28T07:12:47;99246.97;;;16.97;51.23
55460;BME280;41326;45.302;-122.946;2023-02-28T07:15:17;99250.63;;;16.96;51.28
55460;BME280;41326;45.302;-122.946;2023-02-28T07:17:47;99256.14;;;16.89;51.53
55460;BME280;41326;45.302;-122.946;2023-02-28T07:20:18;99259.99;;;16.96;51.15
55460;BME280;41326;45.302;-122.946;2023-02-28T07:22:48;99264.15;;;16.98;50.99
55460;BME280;41326;45.302;-122.946;2023-02-28T07:25:18;99278.98;;;16.93;51.25
55460;BME280;41326;45.302;-122.946;2023-02-28T07:27:48;99281.48;;;16.91;51.36
55460;BME280;41326;45.302;-122.946;2023-02-28T07:30:19;99280.23;;;16.86;51.51
55460;BME280;41326;45.302;-122.946;2023-02-28T07:32:49;99276.46;;;16.82;51.59
55460;BME280;41326;45.302;-122.946;2023-02-28T07:35:20;99277.92;;;16.83;51.53
55460;BME280;41326;45.302;-122.946;2023-02-28T07:37:49;99278.40;;;16.81;51.59
55460;BME280;41326;45.302;-122.946;2023-02-28T07:40:20;99279.04;;;16.84;51.35
55460;BME280;41326;45.302;-122.946;2023-02-28T07:42:50;99281.11;;;16.83;51.30
55460;BME280;41326;45.302;-122.946;2023-02-28T07:45:20;99279.22;;;16.83;51.36
55460;BME280;41326;45.302;-122.946;2023-02-28T07:47:51;99276.01;;;16.77;51.57
55460;BME280;41326;45.302;-122.946;2023-02-28T07:50:21;99283.30;;;16.75;51.66
55460;BME280;41326;45.302;-122.946;2023-02-28T07:52:52;99281.79;;;16.76;51.59
55460;BME280;41326;45.302;-122.946;2023-02-28T07:55:22;99284.46;;;16.75;51.56
55460;BME280;41326;45.302;-122.946;2023-02-28T07:57:53;99289.21;;;16.72;51.55
55460;BME280;41326;45.302;-122.946;2023-02-28T08:00:23;99290.91;;;16.73;51.37
55460;BME280;41326;45.302;-122.946;2023-02-28T08:02:53;99300.56;;;16.70;51.39
55460;BME280;41326;45.302;-122.946;2023-02-28T08:05:23;99313.65;;;16.70;51.40
55460;BME280;41326;45.302;-122.946;2023-02-28T08:07:55;99321.17;;;16.67;51.47
55460;BME280;41326;45.302;-122.946;2023-02-28T08:10:24;99328.74;;;16.62;51.65
55460;BME280;41326;45.302;-122.946;2023-02-28T08:12:54;99336.31;;;16.64;51.50
55460;BME280;41326;45.302;-122.946;2023-02-28T08:15:24;99351.90;;;16.58;51.64
55460;BME280;41326;45.302;-122.946;2023-02-28T08:17:54;99353.63;;;16.60;51.50
55460;BME280;41326;45.302;-122.946;2023-02-28T08:20:25;99358.60;;;16.61;51.28
55460;BME280;41326;45.302;-122.946;2023-02-28T08:22:55;99363.95;;;16.57;51.34
55460;BME280;41326;45.302;-122.946;2023-02-28T08:25:26;99367.85;;;16.53;51.51
55460;BME280;41326;45.302;-122.946;2023-02-28T08:27:57;99370.62;;;16.53;51.55
55460;BME280;41326;45.302;-122.946;2023-02-28T08:30:26;99375.50;;;16.47;51.67
55460;BME280;41326;45.302;-122.946;2023-02-28T08:32:56;99368.94;;;16.46;51.66
55460;BME280;41326;45.302;-122.946;2023-02-28T08:35:26;99377.65;;;16.43;51.79
55460;BME280;41326;45.302;-122.946;2023-02-28T08:37:57;99380.11;;;16.40;51.83
55460;BME280;41326;45.302;-122.946;2023-02-28T08:40:27;99379.36;;;16.45;51.49
55460;BME280;41326;45.302;-122.946;2023-02-28T08:42:58;99384.44;;;16.46;51.36
55460;BME280;41326;45.302;-122.946;2023-02-28T08:45:28;99388.96;;;16.43;51.48
55460;BME280;41326;45.302;-122.946;2023-02-28T08:48:00;99387.31;;;16.41;51.54
55460;BME280;41326;45.302;-122.946;2023-02-28T08:50:28;99395.68;;;16.35;51.69
55460;BME280;41326;45.302;-122.946;2023-02-28T08:52:59;99395.39;;;16.32;51.75
55460;BME280;41326;45.302;-122.946;2023-02-28T08:55:29;99407.59;;;16.27;51.87
55460;BME280;41326;45.302;-122.946;2023-02-28T08:58:00;99412.62;;;16.30;51.72
55460;BME280;41326;45.302;-122.946;2023-02-28T09:00:30;99413.09;;;16.31;51.53
55460;BME280;41326;45.302;-122.946;2023-02-28T09:03:00;99412.99;;;16.33;51.33
55460;BME280;41326;45.302;-122.946;2023-02-28T09:05:31;99412.46;;;16.29;51.55
55460;BME280;41326;45.302;-122.946;2023-02-28T09:08:01;99418.10;;;16.26;51.59
55460;BME280;41326;45.302;-122.946;2023-02-28T09:10:31;99419.29;;;16.20;51.73
55460;BME280;41326;45.302;-122.946;2023-02-28T09:13:01;99428.56;;;16.18;51.76
55460;BME280;41326;45.302;-122.946;2023-02-28T09:15:31;99429.07;;;16.17;51.74
55460;BME280;41326;45.302;-122.946;2023-02-28T09:18:02;99428.90;;;16.18;51.70
55460;BME280;41326;45.302;-122.946;2023-02-28T09:20:33;99435.02;;;16.19;51.48
55460;BME280;41326;45.302;-122.946;2023-02-28T09:23:03;99440.03;;;16.19;51.47
55460;BME280;41326;45.302;-122.946;2023-02-28T09:25:33;99449.54;;;16.18;51.47
55460;BME280;41326;45.302;-122.946;2023-02-28T09:28:03;99449.88;;;16.12;51.69
55460;BME280;41326;45.302;-122.946;2023-02-28T09:30:34;99451.89;;;16.06;51.84
55460;BME280;41326;45.302;-122.946;2023-02-28T09:33:03;99463.64;;;16.07;51.81
55460;BME280;41326;45.302;-122.946;2023-02-28T09:35:33;99473.24;;;16.04;51.85
55460;BME280;41326;45.302;-122.946;2023-02-28T09:38:03;99470.39;;;16.00;51.89
55460;BME280;41326;45.302;-122.946;2023-02-28T09:40:35;99476.03;;;16.05;51.60
55460;BME280;41326;45.302;-122.946;2023-02-28T09:43:05;99477.98;;;16.03;51.69
55460;BME280;41326;45.302;-122.946;2023-02-28T09:45:38;99488.13;;;15.97;51.95
55460;BME280;41326;45.302;-122.946;2023-02-28T09:48:10;99503.24;;;15.99;51.88
55460;BME280;41326;45.302;-122.946;2023-02-28T09:50:38;99512.01;;;15.96;51.93
55460;BME280;41326;45.302;-122.946;2023-02-28T09:53:11;99515.55;;;15.91;52.11
55460;BME280;41326;45.302;-122.946;2023-02-28T09:55:40;99526.35;;;15.93;52.03
55460;BME280;41326;45.302;-122.946;2023-02-28T09:58:08;99535.24;;;15.89;52.10
55460;BME280;41326;45.302;-122.946;2023-02-28T10:00:39;99540.61;;;15.92;51.89
55460;BME280;41326;45.302;-122.946;2023-02-28T10:05:41;99532.24;;;15.87;52.19
55460;BME280;41326;45.302;-122.946;2023-02-28T10:08:13;99522.98;;;15.85;52.19
55460;BME280;41326;45.302;-122.946;2023-02-28T10:10:43;99511.58;;;15.79;52.33
55460;BME280;41326;45.302;-122.946;2023-02-28T10:13:14;99505.21;;;15.77;52.32
55460;BME280;41326;45.302;-122.946;2023-02-28T10:15:39;99504.70;;;15.81;52.12
55460;BME280;41326;45.302;-122.946;2023-02-28T10:18:12;99511.09;;;15.84;52.03
55460;BME280;41326;45.302;-122.946;2023-02-28T10:20:41;99513.58;;;15.88;51.84
55460;BME280;41326;45.302;-122.946;2023-02-28T10:23:17;99518.68;;;15.85;51.99
55460;BME280;41326;45.302;-122.946;2023-02-28T10:25:41;99525.14;;;15.78;52.23
55460;BME280;41326;45.302;-122.946;2023-02-28T10:28:16;99523.91;;;15.72;52.38
55460;BME280;41326;45.302;-122.946;2023-02-28T10:30:45;99520.97;;;15.71;52.35
55460;BME280;41326;45.302;-122.946;2023-02-28T10:33:15;99520.17;;;15.66;52.49
55460;BME280;41326;45.302;-122.946;2023-02-28T10:35:42;99523.30;;;15.66;52.42
55460;BME280;41326;45.302;-122.946;2023-02-28T10:38:20;99525.48;;;15.64;52.41
55460;BME280;41326;45.302;-122.946;2023-02-28T10:40:43;99524.81;;;15.66;52.35
55460;BME280;41326;45.302;-122.946;2023-02-28T10:43:19;99528.03;;;15.63;52.47
55460;BME280;41326;45.302;-122.946;2023-02-28T10:48:27;99532.47;;;15.62;52.64
55460;BME280;41326;45.302;-122.946;2023-02-28T10:50:51;99530.27;;;15.59;52.74
55460;BME280;41326;45.302;-122.946;2023-02-28T10:55:45;99527.64;;;15.58;52.77
55460;BME280;41326;45.302;-122.946;2023-02-28T10:58:22;99531.88;;;15.56;52.73
55460;BME280;41326;45.302;-122.946;2023-02-28T11:00:46;99534.45;;;15.54;52.72
55460;BME280;41326;45.302;-122.946;2023-02-28T11:03:24;99544.47;;;15.56;52.62
55460;BME280;41326;45.302;-122.946;2023-02-28T11:05:51;99549.61;;;15.53;52.80
55460;BME280;41326;45.302;-122.946;2023-02-28T11:08:20;99545.62;;;15.47;52.98
55460;BME280;41326;45.302;-122.946;2023-02-28T11:10:54;99548.35;;;15.44;53.03
55460;BME280;41326;45.302;-122.946;2023-02-28T11:13:26;99550.02;;;15.40;53.13
55460;BME280;41326;45.302;-122.946;2023-02-28T11:15:50;99547.67;;;15.40;53.05
55460;BME280;41326;45.302;-122.946;2023-02-28T11:18:28;99539.79;;;15.41;52.98
55460;BME280;41326;45.302;-122.946;2023-02-28T11:20:53;99529.21;;;15.45;52.78
55460;BME280;41326;45.302;-122.946;2023-02-28T11:23:19;99523.49;;;15.42;52.82
55460;BME280;41326;45.302;-122.946;2023-02-28T11:25:54;99525.21;;;15.41;52.86
55460;BME280;41326;45.302;-122.946;2023-02-28T11:28:24;99517.61;;;15.39;52.80
55460;BME280;41326;45.302;-122.946;2023-02-28T11:30:59;99516.75;;;15.36;52.93
55460;BME280;41326;45.302;-122.946;2023-02-28T11:33:28;99509.52;;;15.31;53.01
55460;BME280;41326;45.302;-122.946;2023-02-28T11:35:51;99503.34;;;15.31;52.86
55460;BME280;41326;45.302;-122.946;2023-02-28T11:38:21;99508.24;;;15.33;52.70
55460;BME280;41326;45.302;-122.946;2023-02-28T11:40:59;99509.75;;;15.32;52.58
55460;BME280;41326;45.302;-122.946;2023-02-28T11:43:33;99509.38;;;15.28;52.71
55460;BME280;41326;45.302;-122.946;2023-02-28T11:48:27;99506.02;;;15.31;52.55
55460;BME280;41326;45.302;-122.946;2023-02-28T11:50:59;99505.90;;;15.28;52.66
55460;BME280;41326;45.302;-122.946;2023-02-28T11:53:34;99499.37;;;15.23;52.74
55460;BME280;41326;45.302;-122.946;2023-02-28T11:55:56;99487.05;;;15.18;52.85
55460;BME280;41326;45.302;-122.946;2023-02-28T11:58:34;99482.20;;;15.19;52.72
55460;BME280;41326;45.302;-122.946;2023-02-28T12:01:07;99488.15;;;15.23;52.49
55460;BME280;41326;45.302;-122.946;2023-02-28T12:03:33;99486.96;;;15.22;52.47
55460;BME280;41326;45.302;-122.946;2023-02-28T12:06:02;99482.99;;;15.15;52.66
55460;BME280;41326;45.302;-122.946;2023-02-28T12:08:47;99479.98;;;15.16;52.59
55460;BME280;41326;45.302;-122.946;2023-02-28T12:11:03;99481.61;;;15.14;52.66
55460;BME280;41326;45.302;-122.946;2023-02-28T12:13:29;99484.71;;;15.10;52.77
55460;BME280;41326;45.302;-122.946;2023-02-28T12:18:37;99480.58;;;15.11;52.52
55460;BME280;41326;45.302;-122.946;2023-02-28T12:21:01;99481.66;;;15.10;52.50
55460;BME280;41326;45.302;-122.946;2023-02-28T12:26:03;99482.82;;;15.06;52.95
55460;BME280;41326;45.302;-122.946;2023-02-28T12:28:31;99480.45;;;15.02;53.03
55460;BME280;41326;45.302;-122.946;2023-02-28T12:31:01;99475.95;;;15.04;52.93
55460;BME280;41326;45.302;-122.946;2023-02-28T12:33:31;99475.63;;;15.02;52.99
55460;BME280;41326;45.302;-122.946;2023-02-28T12:36:00;99476.59;;;15.00;53.09
55460;BME280;41326;45.302;-122.946;2023-02-28T12:38:29;99477.11;;;15.00;53.06
55460;BME280;41326;45.302;-122.946;2023-02-28T12:41:00;99478.47;;;15.00;53.01
55460;BME280;41326;45.302;-122.946;2023-02-28T12:43:33;99477.96;;;15.02;52.97
55460;BME280;41326;45.302;-122.946;2023-02-28T12:46:03;99474.98;;;14.99;53.15
55460;BME280;41326;45.302;-122.946;2023-02-28T12:48:36;99473.29;;;14.92;53.24
55460;BME280;41326;45.302;-122.946;2023-02-28T12:50:59;99473.19;;;14.90;53.42
55460;BME280;41326;45.302;-122.946;2023-02-28T12:53:35;99475.23;;;14.91;53.32
55460;BME280;41326;45.302;-122.946;2023-02-28T12:56:08;99476.51;;;14.90;53.34
55460;BME280;41326;45.302;-122.946;2023-02-28T12:58:35;99472.93;;;14.90;53.33
55460;BME280;41326;45.302;-122.946;2023-02-28T13:01:10;99471.51;;;14.92;53.22
55460;BME280;41326;45.302;-122.946;2023-02-28T13:06:11;99467.62;;;14.88;53.43
55460;BME280;41326;45.302;-122.946;2023-02-28T13:11:01;99458.95;;;14.85;53.63
55460;BME280;41326;45.302;-122.946;2023-02-28T13:13:33;99457.48;;;14.78;53.87
55460;BME280;41326;45.302;-122.946;2023-02-28T13:16:05;99455.75;;;14.84;53.61
55460;BME280;41326;45.302;-122.946;2023-02-28T13:18:36;99458.81;;;14.81;53.57